Home > Products > Valid Products > TAF

000
FTUS42 KJAX 100545
TAFSSI
TAF
KSSI 100545Z 1006/1106 28008KT P6SM SKC
     FM101400 27015G27KT P6SM SKC
     FM102300 26006KT P6SM SKC=



000
FTUS42 KJAX 100545
TAFSSI
TAF
KSSI 100545Z 1006/1106 28008KT P6SM SKC
     FM101400 27015G27KT P6SM SKC
     FM102300 26006KT P6SM SKC=



000
FTUS42 KJAX 100540
TAFGNV
TAF
KGNV 100540Z 1006/1106 29006KT P6SM SKC
     FM101400 28015G25KT P6SM SKC
     FM102300 26003KT P6SM SKC=



000
FTUS42 KJAX 100540
TAFJAX
TAF
KJAX 100540Z 1006/1106 28007KT P6SM SKC
     FM101400 28017G26KT P6SM SKC
     FM102300 26003KT P6SM SKC=



000
FTUS42 KJAX 100540
TAFCRG
TAF
KCRG 100540Z 1006/1106 30011KT P6SM SKC
     FM101400 28017G26KT P6SM SKC
     FM102300 28006KT P6SM SKC=



000
FTUS42 KJAX 100540
TAFJAX
TAF
KJAX 100540Z 1006/1106 28007KT P6SM SKC
     FM101400 28017G26KT P6SM SKC
     FM102300 26003KT P6SM SKC=



000
FTUS42 KJAX 100540
TAFCRG
TAF
KCRG 100540Z 1006/1106 30011KT P6SM SKC
     FM101400 28017G26KT P6SM SKC
     FM102300 28006KT P6SM SKC=



000
FTUS42 KJAX 100540
TAFGNV
TAF
KGNV 100540Z 1006/1106 29006KT P6SM SKC
     FM101400 28015G25KT P6SM SKC
     FM102300 26003KT P6SM SKC=



000
FTUS42 KJAX 092349
TAFSSI
TAF
KSSI 092349Z 1000/1024 27011G20KT P6SM FEW060
     FM101400 28015G25KT P6SM SKC=



000
FTUS42 KJAX 092349
TAFCRG
TAF
KCRG 092349Z 1000/1024 27010G15KT P6SM FEW050
     FM101400 28015G25KT P6SM SKC=



000
FTUS42 KJAX 092349
TAFJAX
TAF
KJAX 092349Z 1000/1024 27010G15KT P6SM FEW045
     FM101400 28015G25KT P6SM SKC=



000
FTUS42 KJAX 092349
TAFGNV
TAF
KGNV 092349Z 1000/1024 27009G15KT P6SM SKC
     FM101400 29012G25KT P6SM SKC=



000
FTUS42 KJAX 092349
TAFJAX
TAF
KJAX 092349Z 1000/1024 27010G15KT P6SM FEW045
     FM101400 28015G25KT P6SM SKC=



000
FTUS42 KJAX 092349
TAFCRG
TAF
KCRG 092349Z 1000/1024 27010G15KT P6SM FEW050
     FM101400 28015G25KT P6SM SKC=



000
FTUS42 KJAX 092349
TAFSSI
TAF
KSSI 092349Z 1000/1024 27011G20KT P6SM FEW060
     FM101400 28015G25KT P6SM SKC=



000
FTUS42 KJAX 092349
TAFGNV
TAF
KGNV 092349Z 1000/1024 27009G15KT P6SM SKC
     FM101400 29012G25KT P6SM SKC=



000
FTUS42 KJAX 091738
TAFGNV
TAF
KGNV 091738Z 0918/1018 27020G35KT P6SM FEW050
     FM092300 27009G15KT P6SM SKC
     FM101400 29012G25KT P6SM SKC=



000
FTUS42 KJAX 091738
TAFSSI
TAF
KSSI 091738Z 0918/1018 26025G35KT P6SM FEW050
     FM092300 27013G22KT P6SM SKC
     FM101400 28015G25KT P6SM SKC=



000
FTUS42 KJAX 091738
TAFJAX
TAF
KJAX 091738Z 0918/1018 27025G40KT P6SM FEW050
     FM092300 27012G20KT P6SM SKC
     FM101400 28015G25KT P6SM SKC=



000
FTUS42 KJAX 091738
TAFCRG
TAF
KCRG 091738Z 0918/1018 27025G40KT P6SM FEW050
     FM092300 27012G20KT P6SM SKC
     FM101400 28015G25KT P6SM SKC=



000
FTUS42 KJAX 091738
TAFJAX
TAF
KJAX 091738Z 0918/1018 27025G40KT P6SM FEW050
     FM092300 27012G20KT P6SM SKC
     FM101400 28015G25KT P6SM SKC=



000
FTUS42 KJAX 091738
TAFSSI
TAF
KSSI 091738Z 0918/1018 26025G35KT P6SM FEW050
     FM092300 27013G22KT P6SM SKC
     FM101400 28015G25KT P6SM SKC=



000
FTUS42 KJAX 091738
TAFCRG
TAF
KCRG 091738Z 0918/1018 27025G40KT P6SM FEW050
     FM092300 27012G20KT P6SM SKC
     FM101400 28015G25KT P6SM SKC=



000
FTUS42 KJAX 091738
TAFGNV
TAF
KGNV 091738Z 0918/1018 27020G35KT P6SM FEW050
     FM092300 27009G15KT P6SM SKC
     FM101400 29012G25KT P6SM SKC=



000
FTUS42 KJAX 091307 AAA
TAFSSI
TAF AMD
KSSI 091307Z 0913/1012 26015G25KT P6SM SCT060
     FM091400 26025G35KT P6SM SKC
     FM092300 27015G25KT P6SM SKC=



000
FTUS42 KJAX 091307 AAA
TAFSSI
TAF AMD
KSSI 091307Z 0913/1012 26015G25KT P6SM SCT060
     FM091400 26025G35KT P6SM SKC
     FM092300 27015G25KT P6SM SKC=



000
FTUS42 KJAX 091306 AAA
TAFGNV
TAF AMD
KGNV 091306Z 0913/1012 27012G20KT P6SM SKC
     FM091400 27018G30KT P6SM SKC
     FM092300 27011G18KT P6SM SKC=



000
FTUS42 KJAX 091306 AAA
TAFGNV
TAF AMD
KGNV 091306Z 0913/1012 27012G20KT P6SM SKC
     FM091400 27018G30KT P6SM SKC
     FM092300 27011G18KT P6SM SKC=



000
FTUS42 KJAX 091303 AAA
TAFCRG
TAF AMD
KCRG 091303Z 0913/1012 28015G25KT P6SM SKC
     FM091400 26025G35KT P6SM SCT250
     FM092300 27015G25KT P6SM SKC=



000
FTUS42 KJAX 091303 AAA
TAFJAX
TAF AMD
KJAX 091303Z 0913/1012 26015G25KT P6SM SKC
     FM091400 26025G35KT P6SM SCT250
     FM092300 27012G20KT P6SM SKC=



000
FTUS42 KJAX 091303 AAA
TAFJAX
TAF AMD
KJAX 091303Z 0913/1012 26015G25KT P6SM SKC
     FM091400 26025G35KT P6SM SCT250
     FM092300 27012G20KT P6SM SKC=



000
FTUS42 KJAX 091303 AAA
TAFCRG
TAF AMD
KCRG 091303Z 0913/1012 28015G25KT P6SM SKC
     FM091400 26025G35KT P6SM SCT250
     FM092300 27015G25KT P6SM SKC=



000
FTUS42 KJAX 091120
TAFGNV
TAF
KGNV 091120Z 0912/1012 29008KT P6SM SKC
     FM091400 27019G29KT P6SM SCT250
     FM092300 27011G18KT P6SM SKC=



000
FTUS42 KJAX 091120
TAFJAX
TAF
KJAX 091120Z 0912/1012 26010KT P6SM FEW100
     FM091400 26022G32KT P6SM SCT250
     FM092300 27012G20KT P6SM SKC=



000
FTUS42 KJAX 091120
TAFJAX
TAF
KJAX 091120Z 0912/1012 26010KT P6SM FEW100
     FM091400 26022G32KT P6SM SCT250
     FM092300 27012G20KT P6SM SKC=



000
FTUS42 KJAX 091120
TAFSSI
TAF
KSSI 091120Z 0912/1012 26006KT P6SM SKC
     FM091400 26020G30KT P6SM SCT250
     FM092300 27012G22KT P6SM SKC=



000
FTUS42 KJAX 091120
TAFGNV
TAF
KGNV 091120Z 0912/1012 29008KT P6SM SKC
     FM091400 27019G29KT P6SM SCT250
     FM092300 27011G18KT P6SM SKC=



000
FTUS42 KJAX 091120
TAFCRG
TAF
KCRG 091120Z 0912/1012 28011KT P6SM SKC
     FM091400 26022G32KT P6SM SCT250
     FM092300 27015G25KT P6SM SKC=



000
FTUS42 KJAX 091120
TAFCRG
TAF
KCRG 091120Z 0912/1012 28011KT P6SM SKC
     FM091400 26022G32KT P6SM SCT250
     FM092300 27015G25KT P6SM SKC=



000
FTUS42 KJAX 091120
TAFSSI
TAF
KSSI 091120Z 0912/1012 26006KT P6SM SKC
     FM091400 26020G30KT P6SM SCT250
     FM092300 27012G22KT P6SM SKC=



000
FTUS42 KJAX 090539
TAFCRG
TAF
KCRG 090539Z 0906/1006 29012KT P6SM FEW050
      TEMPO 0906/0907 OVC080
     FM091400 26022G32KT P6SM SCT250
     FM092300 27015G25KT P6SM SKC=



000
FTUS42 KJAX 090539
TAFGNV
TAF
KGNV 090539Z 0906/1006 30010KT P6SM FEW050
      TEMPO 0906/0908 OVC080
     FM091400 27019G29KT P6SM SCT250
     FM092300 27011G18KT P6SM SKC=



000
FTUS42 KJAX 090539
TAFJAX
TAF
KJAX 090539Z 0906/1006 29010KT P6SM FEW050
     FM091400 26022G32KT P6SM SCT250
     FM092300 27012G20KT P6SM SKC=



000
FTUS42 KJAX 090539
TAFSSI
TAF
KSSI 090539Z 0906/1006 27010KT P6SM FEW050
     FM091400 26020G30KT P6SM SCT250
     FM092300 27012G22KT P6SM SKC=



000
FTUS42 KJAX 090539
TAFGNV
TAF
KGNV 090539Z 0906/1006 30010KT P6SM FEW050
      TEMPO 0906/0908 OVC080
     FM091400 27019G29KT P6SM SCT250
     FM092300 27011G18KT P6SM SKC=



000
FTUS42 KJAX 090539
TAFCRG
TAF
KCRG 090539Z 0906/1006 29012KT P6SM FEW050
      TEMPO 0906/0907 OVC080
     FM091400 26022G32KT P6SM SCT250
     FM092300 27015G25KT P6SM SKC=



000
FTUS42 KJAX 090539
TAFJAX
TAF
KJAX 090539Z 0906/1006 29010KT P6SM FEW050
     FM091400 26022G32KT P6SM SCT250
     FM092300 27012G20KT P6SM SKC=



000
FTUS42 KJAX 090539
TAFSSI
TAF
KSSI 090539Z 0906/1006 27010KT P6SM FEW050
     FM091400 26020G30KT P6SM SCT250
     FM092300 27012G22KT P6SM SKC=



000
FTUS42 KJAX 090011 AAA
TAFSSI
TAF AMD
KSSI 090011Z 0900/0924 24018G26KT P6SM VCTS SCT035CB BKN060
      TEMPO 0900/0902 28020G28KT 5SM TSRA BKN035CB
     FM090400 27013G20KT P6SM SCT050 BKN080
     FM091500 26015G25KT P6SM BKN050=



000
FTUS42 KJAX 082347
TAFJAX
TAF
KJAX 082347Z 0900/0924 25015G25KT P6SM SCT040 BKN070
     FM090600 28013G23KT P6SM SCT050 BKN100
     FM091500 26019G29KT P6SM SCT050 BKN250=



000
FTUS42 KJAX 082347
TAFCRG
TAF
KCRG 082347Z 0900/0924 25015G25KT P6SM SCT040 BKN070
     FM090600 28013G23KT P6SM SCT050 BKN100
     FM091500 27018G28KT P6SM SCT050 BKN250=



000
FTUS42 KJAX 082347
TAFSSI
TAF
KSSI 082347Z 0900/0924 24018G26KT P6SM VCSH SCT035 BKN060
      TEMPO 0900/0902 28020G28KT 5SM SHRA BKN035
     FM090400 27013G20KT P6SM SCT050 BKN080
     FM091500 26015G25KT P6SM BKN050=



000
FTUS42 KJAX 082347
TAFGNV
TAF
KGNV 082347Z 0900/0924 25015G25KT P6SM SCT040 BKN070
     FM090400 28010G18KT P6SM SCT050 BKN080
     FM091500 28017G27KT P6SM BKN050=



000
FTUS42 KJAX 082347
TAFCRG
TAF
KCRG 082347Z 0900/0924 25015G25KT P6SM SCT040 BKN070
     FM090600 28013G23KT P6SM SCT050 BKN100
     FM091500 27018G28KT P6SM SCT050 BKN250=



000
FTUS42 KJAX 082347
TAFJAX
TAF
KJAX 082347Z 0900/0924 25015G25KT P6SM SCT040 BKN070
     FM090600 28013G23KT P6SM SCT050 BKN100
     FM091500 26019G29KT P6SM SCT050 BKN250=



000
FTUS42 KJAX 082347
TAFSSI
TAF
KSSI 082347Z 0900/0924 24018G26KT P6SM VCSH SCT035 BKN060
      TEMPO 0900/0902 28020G28KT 5SM SHRA BKN035
     FM090400 27013G20KT P6SM SCT050 BKN080
     FM091500 26015G25KT P6SM BKN050=



000
FTUS42 KJAX 082347
TAFGNV
TAF
KGNV 082347Z 0900/0924 25015G25KT P6SM SCT040 BKN070
     FM090400 28010G18KT P6SM SCT050 BKN080
     FM091500 28017G27KT P6SM BKN050=



000
FTUS42 KJAX 082252 AAB
TAFSSI
TAF AMD
KSSI 082252Z 0823/0918 24018G26KT P6SM VCSH SCT035 BKN060
      TEMPO 0900/0902 28020G28KT 5SM SHRA BKN035
     FM090400 28013G20KT P6SM FEW050 SCT250
     FM091200 26015G25KT P6SM FEW250=



000
FTUS42 KJAX 082252 AAB
TAFSSI
TAF AMD
KSSI 082252Z 0823/0918 24018G26KT P6SM VCSH SCT035 BKN060
      TEMPO 0900/0902 28020G28KT 5SM SHRA BKN035
     FM090400 28013G20KT P6SM FEW050 SCT250
     FM091200 26015G25KT P6SM FEW250=



000
FTUS42 KJAX 081913 AAA
TAFSSI
TAF AMD
KSSI 081913Z 0819/0918 23015G25KT P6SM FEW250
     FM082100 24016G26KT P6SM FEW050 SCT250
     FM082300 25014G21KT P6SM VCSH SCT030 BKN060
     FM090400 28013G20KT P6SM FEW050 SCT250
     FM091200 26015G25KT P6SM FEW250=



000
FTUS42 KJAX 081913 AAA
TAFSSI
TAF AMD
KSSI 081913Z 0819/0918 23015G25KT P6SM FEW250
     FM082100 24016G26KT P6SM FEW050 SCT250
     FM082300 25014G21KT P6SM VCSH SCT030 BKN060
     FM090400 28013G20KT P6SM FEW050 SCT250
     FM091200 26015G25KT P6SM FEW250=



000
FTUS42 KJAX 081739
TAFSSI
TAF
KSSI 081739Z 0818/0918 23011KT P6SM SKC
     FM082000 24016G24KT P6SM FEW050 SCT250
     FM082300 25014G21KT P6SM VCSH SCT030 BKN060
     FM090400 28013G20KT P6SM FEW050 SCT250
     FM091200 26015G25KT P6SM FEW250=



000
FTUS42 KJAX 081739
TAFGNV
TAF
KGNV 081739Z 0818/0918 26015G25KT P6SM FEW250
     FM082000 24018G28KT P6SM FEW050 SCT250
     FM082200 25015G25KT P6SM SCT030 BKN060
     FM090400 28010G18KT P6SM FEW050 SCT250
     FM091500 28017G27KT P6SM BKN050=



000
FTUS42 KJAX 081739
TAFCRG
TAF
KCRG 081739Z 0818/0918 24017G27KT P6SM FEW250
     FM082000 24018G28KT P6SM FEW050 SCT250
     FM082200 25015G25KT P6SM SCT030 BKN060
     FM090400 28013G23KT P6SM FEW050 SCT250
     FM091500 27018G28KT P6SM SCT250=



000
FTUS42 KJAX 081739
TAFJAX
TAF
KJAX 081739Z 0818/0918 24016G22KT P6SM FEW250
     FM082000 24018G28KT P6SM FEW050 SCT250
     FM082200 25015G25KT P6SM SCT030 BKN060
     FM090400 28013G23KT P6SM FEW050 SCT250
     FM091500 26019G29KT P6SM BKN250=



000
FTUS42 KJAX 081120
TAFSSI
TAF
KSSI 081120Z 0812/0912 25008KT P6SM SKC
     FM081600 24016G24KT P6SM FEW050 SCT250
     FM082200 25014G21KT P6SM SCT030 BKN060
     FM090400 28014G21KT P6SM FEW050 SCT250=



000
FTUS42 KJAX 081120
TAFJAX
TAF
KJAX 081120Z 0812/0912 24006KT P6SM SKC
     FM081600 24018G28KT P6SM FEW050 SCT250
     FM082200 25015G25KT P6SM SCT030 BKN060
     FM090400 28015G25KT P6SM FEW050 SCT250=



000
FTUS42 KJAX 081120
TAFGNV
TAF
KGNV 081120Z 0812/0912 26006KT P6SM SKC
     FM081600 24018G28KT P6SM FEW050 SCT250
     FM082200 25015G25KT P6SM SCT030 BKN060
     FM090400 28014G21KT P6SM FEW050 SCT250=



000
FTUS42 KJAX 081120
TAFCRG
TAF
KCRG 081120Z 0812/0912 25006KT P6SM SKC
     FM081600 24018G28KT P6SM FEW050 SCT250
     FM082200 25015G25KT P6SM SCT030 BKN060
     FM090400 28015G25KT P6SM FEW050 SCT250=



000
FTUS42 KJAX 081120
TAFJAX
TAF
KJAX 081120Z 0812/0912 24006KT P6SM SKC
     FM081600 24018G28KT P6SM FEW050 SCT250
     FM082200 25015G25KT P6SM SCT030 BKN060
     FM090400 28015G25KT P6SM FEW050 SCT250=



000
FTUS42 KJAX 081120
TAFSSI
TAF
KSSI 081120Z 0812/0912 25008KT P6SM SKC
     FM081600 24016G24KT P6SM FEW050 SCT250
     FM082200 25014G21KT P6SM SCT030 BKN060
     FM090400 28014G21KT P6SM FEW050 SCT250=



000
FTUS42 KJAX 081120
TAFGNV
TAF
KGNV 081120Z 0812/0912 26006KT P6SM SKC
     FM081600 24018G28KT P6SM FEW050 SCT250
     FM082200 25015G25KT P6SM SCT030 BKN060
     FM090400 28014G21KT P6SM FEW050 SCT250=



000
FTUS42 KJAX 081120
TAFCRG
TAF
KCRG 081120Z 0812/0912 25006KT P6SM SKC
     FM081600 24018G28KT P6SM FEW050 SCT250
     FM082200 25015G25KT P6SM SCT030 BKN060
     FM090400 28015G25KT P6SM FEW050 SCT250=



000
FTUS42 KJAX 080520
TAFSSI
TAF
KSSI 080520Z 0806/0906 25006KT P6SM SKC
     FM081600 24018G28KT P6SM FEW050 SCT250
     FM082200 25015G25KT P6SM SCT030 BKN060
     FM090400 28015G25KT P6SM SCT030 BKN060=



000
FTUS42 KJAX 080520
TAFGNV
TAF
KGNV 080520Z 0806/0906 26006KT P6SM SKC
     FM081600 24018G28KT P6SM FEW050 SCT250
     FM082200 25015G25KT P6SM SCT030 BKN060
     FM090400 28015G25KT P6SM SCT030 BKN060=



000
FTUS42 KJAX 080520
TAFCRG
TAF
KCRG 080520Z 0806/0906 26006KT P6SM SKC
     FM081600 24018G28KT P6SM FEW050 SCT250
     FM082200 25015G25KT P6SM SCT030 BKN060
     FM090400 28015G25KT P6SM SCT030 BKN060=



000
FTUS42 KJAX 080520
TAFJAX
TAF
KJAX 080520Z 0806/0906 25006KT P6SM SKC
     FM081600 24018G28KT P6SM FEW050 SCT250
     FM082200 25015G25KT P6SM SCT030 BKN060
     FM090400 28015G25KT P6SM SCT030 BKN060=



000
FTUS42 KJAX 072334
TAFCRG
TAF
KCRG 072334Z 0800/0824 29008KT P6SM SKC
     FM081400 26008KT P6SM SKC
     FM081600 25014G20KT P6SM FEW040 SCT250=



000
FTUS42 KJAX 072334
TAFCRG
TAF
KCRG 072334Z 0800/0824 29008KT P6SM SKC
     FM081400 26008KT P6SM SKC
     FM081600 25014G20KT P6SM FEW040 SCT250=



000
FTUS42 KJAX 072334
TAFSSI
TAF
KSSI 072334Z 0800/0824 29006KT P6SM SKC
     FM081400 26008KT P6SM SKC
     FM081600 25012G20KT P6SM FEW040 SCT250=



000
FTUS42 KJAX 072334
TAFGNV
TAF
KGNV 072334Z 0800/0824 29005KT P6SM SKC
     FM081400 26007KT P6SM SCT250
     FM081600 25013G20KT P6SM SCT040 SCT250=



000
FTUS42 KJAX 072334
TAFJAX
TAF
KJAX 072334Z 0800/0824 28005KT P6SM SKC
     FM081400 26008KT P6SM SKC
     FM081600 25014G20KT P6SM FEW040 SCT250=



000
FTUS42 KJAX 072334
TAFJAX
TAF
KJAX 072334Z 0800/0824 28005KT P6SM SKC
     FM081400 26008KT P6SM SKC
     FM081600 25014G20KT P6SM FEW040 SCT250=



000
FTUS42 KJAX 072334
TAFGNV
TAF
KGNV 072334Z 0800/0824 29005KT P6SM SKC
     FM081400 26007KT P6SM SCT250
     FM081600 25013G20KT P6SM SCT040 SCT250=



000
FTUS42 KJAX 072334
TAFSSI
TAF
KSSI 072334Z 0800/0824 29006KT P6SM SKC
     FM081400 26008KT P6SM SKC
     FM081600 25012G20KT P6SM FEW040 SCT250=



000
FTUS42 KJAX 071721
TAFCRG
TAF
KCRG 071721Z 0718/0818 31013G23KT P6SM BKN030
      TEMPO 0719/0720 SCT020 SCT030
     FM072000 31015G25KT P6SM SCT030
     FM072300 29008KT P6SM SKC
     FM080200 28005KT P6SM SKC
     FM081300 26008KT P6SM SCT030 SCT120
     FM081600 25012G20KT P6SM SCT040 BKN100=



000
FTUS42 KJAX 071721
TAFSSI
TAF
KSSI 071721Z 0718/0818 31013G23KT P6SM SCT030
     FM072300 29008KT P6SM SKC
     FM080200 28006KT P6SM SKC
     FM081300 26008KT P6SM SCT030 SCT120
     FM081600 25012G20KT P6SM SCT040 BKN100=



000
FTUS42 KJAX 071721
TAFGNV
TAF
KGNV 071721Z 0718/0818 31013G23KT P6SM SCT035
     FM072300 29008KT P6SM SKC
     FM080200 27004KT P6SM SKC
     FM081300 26006KT P6SM SCT030 SCT120
     FM081600 25012G18KT P6SM SCT040 BKN100=



000
FTUS42 KJAX 071721
TAFJAX
TAF
KJAX 071721Z 0718/0818 31015G25KT P6SM SCT035
      TEMPO 0718/0719 BKN035
     FM072300 29008KT P6SM SKC
     FM080200 28005KT P6SM SKC
     FM081300 26008KT P6SM SCT030 SCT120
     FM081600 25012G20KT P6SM SCT040 BKN100=



000
FTUS42 KJAX 071333 CCB
TAFJAX
TAF COR
KJAX 071333Z 0713/0812 33012G23KT P6SM BKN012 OVC020
     FM071400 32013G25KT P6SM VCSH SCT012 OVC020
     FM071600 32015G26KT P6SM BKN035
     FM071800 31016G27KT P6SM SCT040
     FM072300 29008KT P6SM SKC=



000
FTUS42 KJAX 071309 AAA
TAFCRG
TAF AMD
KCRG 071309Z 0713/0812 33012G23KT P6SM BKN012 OVC015
      TEMPO 0713/0714 BKN009
     FM071400 32013G25KT P6SM VCSH SCT012 OVC020
     FM071600 32015G26KT P6SM BKN035
     FM071800 31016G27KT P6SM SCT040
     FM072300 29008KT P6SM SKC=



000
FTUS42 KJAX 071308 AAB
TAFSSI
TAF AMD
KSSI 071308Z 0713/0812 32013G25KT P6SM VCSH SCT012 OVC025
      TEMPO 0713/0715 -RA BKN012
     FM071600 32015G26KT P6SM BKN025
     FM071800 31016G27KT P6SM SCT030
     FM072300 29008KT P6SM SKC=



000
FTUS42 KJAX 071301 AAB
TAFJAX
TAF AMD
KJAX 071301Z 0713/0812 33012G23KT P6SM BKN010 OVC015
      TEMPO 0713/0714 OVC008
     FM071400 32013G25KT P6SM VCSH SCT012 OVC020
     FM071600 32015G26KT P6SM BKN035
     FM071800 31016G27KT P6SM SCT040
     FM072300 29008KT P6SM SKC=



000
FTUS42 KJAX 071128 AAA
TAFSSI
TAF AMD
KSSI 071128Z 0711/0812 33012G23KT 6SM -RA BR SCT012 OVC025
      TEMPO 0712/0713 4SM -RA BKN012 OVC020
     FM071300 32013G25KT P6SM VCSH SCT012 OVC020
     FM071600 32015G26KT P6SM BKN035
     FM071800 31016G27KT P6SM SCT040
     FM072300 29008KT P6SM SKC=



000
FTUS42 KJAX 071120
TAFJAX
TAF
KJAX 071120Z 0712/0812 33012G23KT 6SM -RA BR BKN012 OVC015
      TEMPO 0712/0713 3SM RA BKN007 OVC012
     FM071300 32013G25KT P6SM VCSH SCT012 OVC020
     FM071600 32015G26KT P6SM BKN035
     FM071800 31016G27KT P6SM SCT040
     FM072300 29008KT P6SM SKC=



000
FTUS42 KJAX 071120
TAFGNV
TAF
KGNV 071120Z 0712/0812 33012G23KT P6SM VCSH BKN008 OVC015
      TEMPO 0712/0713 SCT007 OVC015
     FM071300 32013G24KT P6SM SCT012 OVC025
     FM071500 32015G25KT P6SM SCT035
     FM072300 29008KT P6SM SKC=



000
FTUS42 KJAX 071120
TAFCRG
TAF
KCRG 071120Z 0712/0812 33012G23KT 6SM -RA BR BKN012 OVC015
      TEMPO 0712/0713 3SM RA BKN007 OVC012
     FM071300 32013G25KT P6SM VCSH SCT012 OVC020
     FM071600 32015G26KT P6SM BKN035
     FM071800 31016G27KT P6SM SCT040
     FM072300 29008KT P6SM SKC=



000
FTUS42 KJAX 071120
TAFSSI
TAF
KSSI 071120Z 0712/0812 33012G23KT 5SM -RA BR BKN010 OVC016
      TEMPO 0712/0713 3SM RA BKN006 OVC010
     FM071300 32013G25KT P6SM VCSH SCT012 OVC020
     FM071600 32015G26KT P6SM BKN035
     FM071800 31016G27KT P6SM SCT040
     FM072300 29008KT P6SM SKC=



    US Dept of Commerce
    National Oceanic and Atmospheric Administration
    National Weather Service
    1325 East West Highway
    Silver Spring, MD 20910
    Page Author: NWS Internet Services Team
Disclaimer
Information Quality
Credits
Glossary
Privacy Policy
Freedom of Information Act (FOIA)
About Us
Career Opportunities